createdAt,value
2022-09-01T00:01:54.391Z,102180.16
2022-09-01T00:04:59.002Z,102177.72
2022-09-01T00:08:00.771Z,102185.09
2022-09-01T00:11:02.393Z,102187.94
2022-09-01T00:14:06.815Z,102187.19
2022-09-01T00:17:23.795Z,102178.44
2022-09-01T00:20:25.518Z,102172.44
2022-09-01T00:23:28.451Z,102177.09
2022-09-01T00:26:30.460Z,102178.13
2022-09-01T00:29:32.088Z,102177.47
2022-09-01T00:32:33.637Z,102174.84
2022-09-01T00:35:37.243Z,102176.00
2022-09-01T00:38:39.129Z,102171.75
2022-09-01T00:41:44.986Z,102176.34
2022-09-01T00:44:46.846Z,102180.13
2022-09-01T00:47:49.327Z,102175.81
2022-09-01T00:50:51.040Z,102181.34
2022-09-01T00:53:58.803Z,102173.59
2022-09-01T00:57:03.153Z,102172.00
2022-09-01T01:00:16.435Z,102177.72
2022-09-01T01:03:18.061Z,102177.13
2022-09-01T01:06:24.003Z,102180.72
2022-09-01T01:09:29.287Z,102175.56
2022-09-01T01:12:30.884Z,102182.03
2022-09-01T01:15:32.589Z,102181.34
2022-09-01T01:18:34.201Z,102172.63
2022-09-01T01:22:01.118Z,102171.97
2022-09-01T01:25:02.764Z,102174.19
2022-09-01T01:28:13.433Z,102171.78
2022-09-01T01:31:18.637Z,102169.38
2022-09-01T01:34:23.400Z,102168.75
2022-09-01T01:37:25.611Z,102171.59
2022-09-01T01:40:29.061Z,102171.94
2022-09-01T01:43:30.893Z,102180.19
2022-09-01T01:46:34.793Z,102174.16
2022-09-01T01:49:36.886Z,102172.59
2022-09-01T01:52:38.497Z,102177.13
2022-09-01T01:55:51.626Z,102174.47
2022-09-01T01:58:56.336Z,102171.00
2022-09-01T02:01:58.345Z,102176.59
2022-09-01T02:05:00.465Z,102180.28
2022-09-01T02:08:06.995Z,102179.53
2022-09-01T02:11:09.296Z,102174.19
2022-09-01T02:14:13.452Z,102174.25
2022-09-01T02:17:15.120Z,102169.94
2022-09-01T02:20:16.784Z,102169.94
2022-09-01T02:23:23.529Z,102172.59
2022-09-01T02:26:30.185Z,102169.94
2022-09-01T02:29:38.593Z,102171.81
2022-09-01T02:32:45.253Z,102169.16
2022-09-01T02:35:49.048Z,102166.47
2022-09-01T02:38:53.348Z,102166.47
2022-09-01T02:41:57.011Z,102163.91
2022-09-01T02:44:58.806Z,102163.91
2022-09-01T02:48:00.407Z,102163.81
2022-09-01T02:51:04.939Z,102158.47
2022-09-01T02:54:06.666Z,102159.44
2022-09-01T02:57:09.124Z,102156.81
2022-09-01T03:00:22.822Z,102153.38
2022-09-01T03:03:25.329Z,102152.50
2022-09-01T03:06:28.194Z,102140.88
2022-09-01T03:09:29.788Z,102144.44
2022-09-01T03:12:31.317Z,102145.38
2022-09-01T03:15:34.119Z,102151.66
2022-09-01T03:18:35.933Z,102150.78
2022-09-01T03:21:43.928Z,102151.66
2022-09-01T03:24:45.515Z,102141.81
2022-09-01T03:27:47.518Z,102149.84
2022-09-01T03:30:52.165Z,102148.91
2022-09-01T03:33:57.155Z,102146.22
2022-09-01T03:36:58.696Z,102141.75
2022-09-01T03:40:01.748Z,102139.00
2022-09-01T03:43:05.164Z,102137.97
2022-09-01T03:46:08.039Z,102136.22
2022-09-01T03:49:15.407Z,102134.44
2022-09-01T03:52:18.105Z,102139.78
2022-09-01T03:55:26.796Z,102131.84
2022-09-01T03:58:28.581Z,102134.53
2022-09-01T04:01:37.958Z,102136.22
2022-09-01T04:04:39.744Z,102142.44
2022-09-01T04:07:41.401Z,102131.69
2022-09-01T04:10:54.243Z,102141.41
2022-09-01T04:13:56.631Z,102141.34
2022-09-01T04:17:17.017Z,102139.47
2022-09-01T04:20:23.540Z,102128.78
2022-09-01T04:23:32.007Z,102128.78
2022-09-01T04:26:33.951Z,102125.25
2022-09-01T04:29:36.040Z,102133.25
2022-09-01T04:32:40.387Z,102129.66
2022-09-01T04:35:42.032Z,102136.69
2022-09-01T04:38:43.709Z,102138.44
2022-09-01T04:41:51.186Z,102133.00
2022-09-01T04:44:54.657Z,102143.53
2022-09-01T04:47:56.252Z,102149.75
2022-09-01T04:50:58.733Z,102154.13
2022-09-01T04:54:02.995Z,102155.94
2022-09-01T04:57:07.061Z,102154.22
2022-09-01T05:00:22.344Z,102155.84
2022-09-01T05:03:24.638Z,102144.16
2022-09-01T05:06:26.485Z,102152.78
2022-09-01T05:09:35.710Z,102146.31
2022-09-01T05:12:37.400Z,102154.06
2022-09-01T05:15:47.949Z,102147.53
2022-09-01T05:18:50.200Z,102152.56
2022-09-01T05:21:51.788Z,102144.28
2022-09-01T05:24:55.032Z,102153.69
2022-09-01T05:27:57.773Z,102154.19
2022-09-01T05:31:02.193Z,102139.59
2022-09-01T05:34:04.902Z,102148.13
2022-09-01T05:37:14.607Z,102147.81
2022-09-01T05:40:17.126Z,102155.47
2022-09-01T05:43:18.855Z,102146.34
2022-09-01T05:46:23.637Z,102149.53
2022-09-01T05:49:26.922Z,102143.91
2022-09-01T05:52:34.049Z,102156.72
2022-09-01T05:55:38.237Z,102158.81
2022-09-01T06:02:02.846Z,102157.56
2022-09-01T06:05:04.963Z,102154.34
2022-09-01T06:08:10.755Z,102153.41
2022-09-01T06:11:17.741Z,102153.19
2022-09-01T06:14:20.541Z,102153.19
2022-09-01T06:17:25.798Z,102154.06
2022-09-01T06:20:27.843Z,102158.56
2022-09-01T06:23:29.849Z,102161.94
2022-09-01T06:26:35.112Z,102164.59
2022-09-01T06:29:40.192Z,102165.25
2022-09-01T06:32:44.296Z,102165.09
2022-09-01T06:35:47.630Z,102161.34
2022-09-01T06:38:54.087Z,102156.56
2022-09-01T06:41:57.254Z,102164.31
2022-09-01T06:44:59.854Z,102173.63
2022-09-01T06:48:01.605Z,102166.16
2022-09-01T06:51:21.275Z,102173.75
2022-09-01T06:54:25.949Z,102175.19
2022-09-01T07:00:52.463Z,102184.84
2022-09-01T07:03:57.062Z,102173.63
2022-09-01T07:06:59.499Z,102186.47
2022-09-01T07:13:24.003Z,102189.63
2022-09-01T07:16:33.335Z,102197.81
2022-09-01T07:19:53.070Z,102196.19
2022-09-01T07:23:05.536Z,102204.28
2022-09-01T07:26:08.161Z,102207.22
2022-09-01T07:29:09.964Z,102202.78
2022-09-01T07:35:38.124Z,102209.97
2022-09-01T07:39:48.224Z,102202.03
2022-09-01T07:45:30.929Z,102204.00
2022-09-01T07:48:36.917Z,102215.09
2022-09-01T07:51:55.215Z,102211.66
2022-09-01T07:54:57.067Z,102214.78
2022-09-01T07:57:59.521Z,102207.38
2022-09-01T08:01:02.776Z,102213.31
2022-09-01T08:04:04.430Z,102218.44
2022-09-01T08:07:06.001Z,102220.81
2022-09-01T08:10:08.640Z,102219.63
2022-09-01T08:13:15.320Z,102216.50
2022-09-01T08:16:18.180Z,102214.34
2022-09-01T08:19:20.289Z,102213.19
2022-09-01T08:22:24.191Z,102210.03
2022-09-01T08:25:26.267Z,102212.28
2022-09-01T08:28:28.199Z,102214.50
2022-09-01T08:31:31.347Z,102215.69
2022-09-01T08:34:34.749Z,102210.84
2022-09-01T08:37:37.657Z,102205.09
2022-09-01T08:40:42.080Z,102206.28
2022-09-01T08:44:00.293Z,102209.38
2022-09-01T08:47:07.133Z,102204.53
2022-09-01T08:50:09.716Z,102206.78
2022-09-01T08:53:27.766Z,102206.31
2022-09-01T08:56:29.644Z,102202.19
2022-09-01T08:59:31.432Z,102209.69
2022-09-01T09:02:57.182Z,102206.19
2022-09-01T09:06:24.675Z,102207.44
2022-09-01T09:09:53.716Z,102199.63
2022-09-01T09:13:43.710Z,102204.53
2022-09-01T09:16:51.530Z,102194.28
2022-09-01T09:19:55.597Z,102195.63
2022-09-01T09:22:59.737Z,102197.91
2022-09-01T09:26:01.623Z,102194.13
2022-09-01T09:29:03.609Z,102187.63
2022-09-01T09:32:22.523Z,102191.56
2022-09-01T09:35:36.551Z,102184.56
2022-09-01T09:38:38.365Z,102182.88
2022-09-01T09:41:41.721Z,102178.34
2022-09-01T09:44:52.884Z,102180.31
2022-09-01T09:47:56.895Z,102175.28
2022-09-01T09:51:17.344Z,102178.22
2022-09-01T09:54:23.039Z,102172.66
2022-09-01T09:57:24.748Z,102176.53
2022-09-01T10:00:26.407Z,102166.28
2022-09-01T10:03:37.269Z,102161.47
2022-09-01T10:06:45.046Z,102163.97
2022-09-01T10:09:46.778Z,102158.72
2022-09-01T10:12:48.383Z,102160.94
2022-09-01T10:16:05.887Z,102152.59
2022-09-01T10:19:16.186Z,102151.69
2022-09-01T10:22:18.823Z,102150.75
2022-09-01T10:25:26.337Z,102153.66
2022-09-01T10:28:32.656Z,102151.53
2022-09-01T10:31:37.093Z,102157.31
2022-09-01T10:34:42.092Z,102151.91
2022-09-01T10:37:45.902Z,102157.66
2022-09-01T10:41:07.195Z,102151.69
2022-09-01T10:44:11.937Z,102154.97
2022-09-01T10:47:33.727Z,102156.25
2022-09-01T10:50:35.959Z,102144.16
2022-09-01T10:53:38.709Z,102150.47
2022-09-01T10:56:51.299Z,102146.88
2022-09-01T10:59:56.801Z,102143.03
2022-09-01T11:03:31.515Z,102139.63
2022-09-01T11:07:13.939Z,102140.34
2022-09-01T11:10:39.678Z,102142.75
2022-09-01T11:13:55.020Z,102138.06
2022-09-01T11:17:14.092Z,102127.91
2022-09-01T11:20:25.145Z,102127.50
2022-09-01T11:23:34.049Z,102119.19
2022-09-01T11:26:46.264Z,102122.72
2022-09-01T11:29:57.285Z,102114.16
2022-09-01T11:33:24.114Z,102110.84
2022-09-01T11:36:36.507Z,102110.53
2022-09-01T11:39:47.933Z,102114.22
2022-09-01T11:42:54.369Z,102104.63
2022-09-01T11:46:18.838Z,102109.59
2022-09-01T11:49:30.397Z,102111.28
2022-09-01T11:52:36.348Z,102104.53
2022-09-01T11:55:41.177Z,102095.16
2022-09-01T11:58:43.082Z,102109.94
2022-09-01T12:01:44.831Z,102106.53
2022-09-01T12:04:46.600Z,102105.13
2022-09-01T12:07:48.385Z,102113.06
2022-09-01T12:10:50.123Z,102112.31
2022-09-01T12:14:11.064Z,102110.47
2022-09-01T12:17:20.429Z,102101.19
2022-09-01T12:20:29.790Z,102100.63
2022-09-01T12:23:33.192Z,102104.22
2022-09-01T12:26:34.825Z,102097.09
2022-09-01T12:29:38.309Z,102095.06
2022-09-01T12:32:40.072Z,102101.38
2022-09-01T12:35:41.986Z,102094.59
2022-09-01T12:38:43.708Z,102086.19
2022-09-01T12:41:48.616Z,102087.28
2022-09-01T12:45:10.754Z,102083.22
2022-09-01T12:48:33.439Z,102087.03
2022-09-01T12:51:35.853Z,102087.50
2022-09-01T12:54:38.295Z,102075.84
2022-09-01T12:57:49.247Z,102079.13
2022-09-01T13:01:16.391Z,102083.53
2022-09-01T13:04:21.289Z,102087.69
2022-09-01T13:07:22.997Z,102076.69
2022-09-01T13:10:28.473Z,102079.50
2022-09-01T13:13:31.110Z,102072.59
2022-09-01T13:16:32.825Z,102079.16
2022-09-01T13:19:34.424Z,102080.88
2022-09-01T13:22:36.225Z,102073.16
2022-09-01T13:25:38.173Z,102072.00
2022-09-01T13:28:40.935Z,102054.00
2022-09-01T13:32:16.684Z,102056.31
2022-09-01T13:35:06.852Z,102058.50
2022-09-01T13:38:08.443Z,102059.50
2022-09-01T13:41:11.681Z,102053.31
2022-09-01T13:44:13.428Z,102053.56
2022-09-01T13:47:30.853Z,102042.81
2022-09-01T13:51:14.217Z,102036.56
2022-09-01T13:53:54.420Z,102042.31
2022-09-01T13:56:56.058Z,102026.03
2022-09-01T13:59:58.712Z,102031.06
2022-09-01T14:03:04.040Z,102033.16
2022-09-01T14:06:06.886Z,102029.16
2022-09-01T14:09:08.622Z,102031.34
2022-09-01T14:12:10.179Z,102032.59
2022-09-01T14:15:16.571Z,102021.03
2022-09-01T14:18:21.859Z,102020.84
2022-09-01T14:21:23.511Z,102012.25
2022-09-01T14:24:26.615Z,102004.19
2022-09-01T14:27:28.484Z,102012.13
2022-09-01T14:30:32.271Z,102021.25
2022-09-01T14:33:34.153Z,102008.75
2022-09-01T14:36:35.729Z,102002.72
2022-09-01T14:39:38.666Z,101996.34
2022-09-01T14:42:40.744Z,102001.25
2022-09-01T14:45:45.962Z,102002.22
2022-09-01T14:48:48.937Z,102000.38
2022-09-01T14:55:12.105Z,101981.53
2022-09-01T14:58:13.652Z,101976.94
2022-09-01T15:01:33.565Z,101977.97
2022-09-01T15:04:36.215Z,101974.00
2022-09-01T15:07:38.578Z,101973.59
2022-09-01T15:10:40.973Z,101975.75
2022-09-01T15:13:45.329Z,101979.09
2022-09-01T15:16:47.254Z,101970.56
2022-09-01T15:19:49.242Z,101970.41
2022-09-01T15:22:51.646Z,101969.91
2022-09-01T15:25:55.216Z,101967.13
2022-09-01T15:28:59.692Z,101955.00
2022-09-01T15:32:01.760Z,101943.75
2022-09-01T15:35:03.710Z,101948.31
2022-09-01T15:38:07.081Z,101940.34
2022-09-01T15:41:08.823Z,101943.94
2022-09-01T15:44:11.125Z,101940.06
2022-09-01T15:47:12.667Z,101943.31
2022-09-01T15:50:21.882Z,101939.31
2022-09-01T15:53:23.981Z,101932.00
2022-09-01T15:56:26.635Z,101936.25
2022-09-01T15:59:29.151Z,101936.13
2022-09-01T16:02:31.042Z,101933.56
2022-09-01T16:05:35.150Z,101933.03
2022-09-01T16:08:36.791Z,101923.88
2022-09-01T16:11:41.101Z,101924.44
2022-09-01T16:14:42.719Z,101930.38
2022-09-01T16:17:53.465Z,101936.13
2022-09-01T16:21:17.896Z,101925.34
2022-09-01T16:24:20.582Z,101929.56
2022-09-01T16:27:27.364Z,101928.59
2022-09-01T16:30:29.929Z,101926.88
2022-09-01T16:33:33.232Z,101925.31
2022-09-01T16:37:19.895Z,101922.06
2022-09-01T16:40:57.906Z,101920.78
2022-09-01T16:44:06.838Z,101918.66
2022-09-01T16:47:08.426Z,101916.28
2022-09-01T16:50:16.285Z,101915.69
2022-09-01T16:54:02.073Z,101913.28
2022-09-01T16:57:35.737Z,101914.75
2022-09-01T17:01:18.448Z,101901.31
2022-09-01T17:04:23.009Z,101909.31
2022-09-01T17:07:29.450Z,101904.03
2022-09-01T17:10:43.415Z,101902.19
2022-09-01T17:13:52.153Z,101908.75
2022-09-01T17:17:05.552Z,101905.34
2022-09-01T17:20:08.210Z,101905.47
2022-09-01T17:23:15.546Z,101905.78
2022-09-01T17:26:31.370Z,101909.94
2022-09-01T17:29:44.928Z,101911.94
2022-09-01T17:33:05.872Z,101907.94
2022-09-01T17:36:48.553Z,101917.06
2022-09-01T17:40:15.854Z,101920.75
2022-09-01T17:43:26.153Z,101913.94
2022-09-01T17:46:48.069Z,101919.47
2022-09-01T17:50:05.901Z,101918.59
2022-09-01T17:53:26.112Z,101918.41
2022-09-01T17:56:46.203Z,101930.66
2022-09-01T18:00:24.945Z,101920.66
2022-09-01T18:03:37.319Z,101924.91
2022-09-01T18:06:57.539Z,101914.66
2022-09-01T18:10:02.575Z,101929.69
2022-09-01T18:13:07.334Z,101925.84
2022-09-01T18:16:21.198Z,101923.69
2022-09-01T18:19:32.422Z,101925.38
2022-09-01T18:22:41.640Z,101931.66
2022-09-01T18:25:57.658Z,101932.34
2022-09-01T18:29:00.735Z,101929.47
2022-09-01T18:32:12.193Z,101922.97
2022-09-01T18:35:34.082Z,101934.69
2022-09-01T18:38:47.328Z,101930.22
2022-09-01T18:42:31.405Z,101931.88
2022-09-01T18:45:54.447Z,101941.03
2022-09-01T18:49:23.872Z,101941.78
2022-09-01T18:52:25.848Z,101946.22
2022-09-01T18:55:39.487Z,101944.06
2022-09-01T18:58:53.428Z,101948.38
2022-09-01T19:02:25.727Z,101943.03
2022-09-01T19:05:35.517Z,101946.63
2022-09-01T19:08:59.113Z,101947.97
2022-09-01T19:12:30.309Z,101945.06
2022-09-01T19:16:13.787Z,101945.81
2022-09-01T19:19:27.525Z,101944.88
2022-09-01T19:22:51.799Z,101945.38
2022-09-01T19:26:01.036Z,101951.47
2022-09-01T19:29:12.264Z,101944.88
2022-09-01T19:32:18.602Z,101949.91
2022-09-01T19:35:20.347Z,101951.25
2022-09-01T19:38:27.692Z,101944.75
2022-09-01T19:41:41.469Z,101956.13
2022-09-01T19:45:13.510Z,101957.59
2022-09-01T19:48:32.975Z,101951.84
2022-09-01T19:52:13.612Z,101961.25
2022-09-01T19:55:56.559Z,101959.06
2022-09-01T19:59:19.325Z,101967.38
2022-09-01T20:02:32.139Z,101962.56
2022-09-01T20:05:41.421Z,101959.59
2022-09-01T20:09:05.634Z,101961.91
2022-09-01T20:12:41.189Z,101961.75
2022-09-01T20:16:06.000Z,101968.81
2022-09-01T20:19:31.752Z,101961.41
2022-09-01T20:23:02.865Z,101963.09
2022-09-01T20:26:15.007Z,101969.91
2022-09-01T20:29:20.350Z,101965.63
2022-09-01T20:32:52.205Z,101961.44
2022-09-01T20:36:07.062Z,101971.56
2022-09-01T20:39:56.388Z,101971.91
2022-09-01T20:43:26.309Z,101981.28
2022-09-01T20:46:28.396Z,101974.53
2022-09-01T20:49:32.000Z,101971.06
2022-09-01T20:52:58.762Z,101975.84
2022-09-01T20:56:36.266Z,101976.38
2022-09-01T20:59:50.587Z,101976.81
2022-09-01T21:03:39.448Z,101979.84
2022-09-01T21:07:15.075Z,101980.41
2022-09-01T21:10:28.812Z,101980.88
2022-09-01T21:13:58.824Z,101983.88
2022-09-01T21:17:30.518Z,101982.38
2022-09-01T21:20:42.929Z,101977.56
2022-09-01T21:23:44.481Z,101980.56
2022-09-01T21:26:48.992Z,101980.69
2022-09-01T21:29:55.999Z,101984.53
2022-09-01T21:32:57.613Z,101973.19
2022-09-01T21:36:00.503Z,101969.97
2022-09-01T21:39:02.132Z,101970.25
2022-09-01T21:42:06.147Z,101971.56
2022-09-01T21:45:11.753Z,101971.00
2022-09-01T21:48:13.325Z,101971.34
2022-09-01T21:51:14.916Z,101959.06
2022-09-01T21:54:17.036Z,101968.31
2022-09-01T21:57:20.887Z,101967.78
2022-09-01T22:00:26.897Z,101968.94
2022-09-01T22:03:28.495Z,101955.84
2022-09-01T22:06:30.521Z,101960.59
2022-09-01T22:09:32.899Z,101961.75
2022-09-01T22:12:39.303Z,101960.25
2022-09-01T22:15:49.460Z,101968.28
2022-09-01T22:18:51.155Z,101962.25
2022-09-01T22:21:53.764Z,101964.53
2022-09-01T22:24:55.321Z,101966.66
2022-09-01T22:28:03.254Z,101960.63
2022-09-01T22:31:04.983Z,101968.03
2022-09-01T22:34:07.736Z,101968.34
2022-09-01T22:37:09.461Z,101965.13
2022-09-01T22:40:13.018Z,101964.47
2022-09-01T22:43:18.314Z,101966.59
2022-09-01T22:46:21.932Z,101963.53
2022-09-01T22:49:24.001Z,101959.66
2022-09-01T22:52:25.764Z,101953.72
2022-09-01T22:55:28.139Z,101961.22
2022-09-01T22:58:29.914Z,101957.84
2022-09-01T23:01:35.527Z,101959.97
2022-09-01T23:04:38.096Z,101966.50
2022-09-01T23:07:39.944Z,101962.53
2022-09-01T23:10:41.953Z,101961.28
2022-09-01T23:13:43.708Z,101956.41
2022-09-01T23:16:45.952Z,101961.31
2022-09-01T23:19:47.670Z,101953.78
2022-09-01T23:22:49.544Z,101950.53
2022-09-01T23:25:53.551Z,101948.25
2022-09-01T23:28:56.261Z,101945.00
2022-09-01T23:31:57.885Z,101948.06
2022-09-01T23:34:59.832Z,101940.47
2022-09-01T23:38:01.442Z,101936.28
2022-09-01T23:41:07.171Z,101931.31
2022-09-01T23:44:11.071Z,101927.97
2022-09-01T23:47:12.765Z,101929.09
2022-09-01T23:50:14.384Z,101920.44
2022-09-01T23:53:16.743Z,101915.34
2022-09-01T23:56:21.733Z,101912.00
2022-09-01T23:59:27.524Z,101917.53
